LiveATC.Net - Listen to live air traffic control over the Internet! Contact for advertising information

ICAO: WMKB  IATA: BWH   Airport: Butterworth Airport
City: Penang
Country: Malaysia   Continent: Asia
WMKB METAR Weather: WMKB 082300Z 06003KT 6000 FEW025 SCT140 BKN270 25/24 Q1011 NOSIG
WMKB Flight Activity (FlightAware)
WMKB Radar
Feed Status: UP   Listeners: 4
Listen right in your browser - requires Flash (in browser, requires Flash)
Click here to listen with your own player (launches your MP3 player)
WMKB Radar Audio Archives
Butterworth Radar125.800


Unauthorized use prohibited. See Terms of Service

Find LiveATC Audio Streams

Airport/ARTCC Code

(e.g., 124.400, 128.75)
Site-wide search

Browse LiveATC Feeds
LiveATC Coverage Map
Top 50 LiveATC Feeds
Bad Weather Areas

Offer a LiveATC Feed
Press Inquiries

LiveATC on iPhone
LiveATC on Android

Windows Phone
Windows 8/10

LiveATC Mobile
(Mobile browser)

ATC Audio Archives
Interesting Recordings

LiveATC Forums

Home Page
Make a Donation
LiveATC Bookstore

Terms of Use
Privacy Policy

ATC/Radar Sites
U.S. ARTCC Freqs
Canadian Air Freqs


FAA Airport Status
Nat'l Airspace Status
Arrival Demand Charts

Server Software By:

Please make a donation to help us keep growing!